Zim Vancouver — A8LK5 — position and weather

sailwx.info

Track history (hours):
 
Tides and Currents Weather Stations Pressure Air Temp Water Temp Dewpoint Dewpoint Depression Visibility Wind Speed Wind Dir Waves Ship Positions

Zim Vancouver

Last reported at 2014-Oct-27 19:28 UTC. Time now 2014-Oct-31 23:45 UTC.
Position N 01°13' E 103°54'.

Length 260 m; draft 12.2 m.

Type: Ship. MMSI: 636013214.

Date/timePositionNaut miles runAvg speedWind from/ knotsBaromVisibWave heightAir tempDewpointWater temp
2014-Oct-27 19:28N 01°13' E 103°54'1415.4
2014-Oct-27 18:33N 01°16' E 104°07'  
2014-Oct-24 06:31N 22°21' E 114°01'9 9.4
2014-Oct-24 05:33N 22°26' E 113°53'6 1.2
2014-Oct-24 00:13N 22°32' E 113°51'0 0.0
2014-Oct-23 23:25N 22°32' E 113°51'0 0.0
2014-Oct-23 22:07N 22°32' E 113°51'0 0.0
2014-Oct-23 21:31N 22°32' E 113°51'0 0.0
2014-Oct-23 20:31N 22°32' E 113°51'0 0.0
2014-Oct-23 19:31N 22°32' E 113°51'0 0.2
2014-Oct-23 17:27N 22°32' E 113°51'7 8.1
2014-Oct-23 16:33N 22°25' E 113°53'12 9.8
2014-Oct-23 15:19N 22°20' E 114°05'30816.3
2014-Oct-22 20:26N 24°30' E 119°09'40018.1
2014-Oct-21 22:24N 30°16' E 122°55'1416.8
2014-Oct-21 21:33N 30°25' E 122°43'1817.6
2014-Oct-21 20:33N 30°32' E 122°24'1615.5
2014-Oct-21 19:33N 30°36' E 122°06'2 0.2
2014-Oct-21 06:30N 30°36' E 122°04'8 7.2
2014-Oct-21 05:26N 30°34' E 122°12'8 9.3
2014-Oct-21 04:32N 30°33' E 122°22'1010.2
2014-Oct-21 03:33N 30°31' E 122°33'8 7.6
2014-Oct-21 02:33N 30°28' E 122°41'0 0.0
2014-Oct-20 21:07N 30°27' E 122°41'0 0.1
2014-Oct-20 17:19N 30°28' E 122°41'0 0.0
2014-Oct-20 16:31N 30°28' E 122°41'0 0.1
2014-Oct-20 15:31N 30°28' E 122°41'0 0.1
2014-Oct-20 14:29N 30°28' E 122°41'5 5.3
2014-Oct-20 13:33N 30°27' E 122°47'1312.8
2014-Oct-20 12:33N 30°19' E 122°58'1110.7
2014-Oct-20 11:33N 30°08' E 122°59'1312.6
2014-Oct-20 10:33N 29°59' E 122°49'1312.9
2014-Oct-20 09:33N 29°50' E 122°38'1211.5
2014-Oct-20 08:33N 29°45' E 122°27'1110.6
2014-Oct-20 07:33N 29°48' E 122°15'1111.5
2014-Oct-20 06:33N 29°55' E 122°05'2 0.8
2014-Oct-20 04:16N 29°53' E 122°03'0 0.0
2014-Oct-20 02:10N 29°53' E 122°03'0 0.0
2014-Oct-20 01:28N 29°53' E 122°03'0 0.0
2014-Oct-19 20:16N 29°53' E 122°03'0 0.4
2014-Oct-19 19:33N 29°54' E 122°03'7 6.9
2014-Oct-19 18:33N 29°55' E 122°11'1110.7
2014-Oct-19 17:33N 29°46' E 122°18'8 7.9
2014-Oct-19 16:32N 29°43' E 122°27'0 0.1
2014-Oct-19 12:20N 29°44' E 122°27'0 0.0
2014-Oct-19 10:32N 29°44' E 122°27'0 0.0
2014-Oct-19 09:22N 29°44' E 122°27'0 0.1
2014-Oct-19 08:29N 29°44' E 122°27'0 0.1
2014-Oct-19 07:32N 29°44' E 122°27'0 0.1
2014-Oct-19 06:32N 29°44' E 122°27'5 5.3
2014-Oct-19 05:32N 29°43' E 122°33'1212.5
2014-Oct-19 04:33N 29°49' E 122°45'  
Track history (hours):
 
Tides and Currents Weather Stations Pressure Air Temp Water Temp Dewpoint Dewpoint Depression Visibility Wind Speed Wind Dir Waves Ship Positions

Zim Vancouver

Last reported at 2014-Oct-27 19:28 UTC. Time now 2014-Oct-31 23:45 UTC.
Position N 01°13' E 103°54'.

Length 260 m; draft 12.2 m.

Type: Ship. MMSI: 636013214.

Date/timePositionNaut miles runAvg speedWind from/ knotsBaromVisibWave heightAir tempDewpointWater temp
2014-Oct-27 19:28N 01°13' E 103°54'1415.4
2014-Oct-27 18:33N 01°16' E 104°07'  
2014-Oct-24 06:31N 22°21' E 114°01'9 9.4
2014-Oct-24 05:33N 22°26' E 113°53'6 1.2
2014-Oct-24 00:13N 22°32' E 113°51'0 0.0
2014-Oct-23 23:25N 22°32' E 113°51'0 0.0
2014-Oct-23 22:07N 22°32' E 113°51'0 0.0
2014-Oct-23 21:31N 22°32' E 113°51'0 0.0
2014-Oct-23 20:31N 22°32' E 113°51'0 0.0
2014-Oct-23 19:31N 22°32' E 113°51'0 0.2
2014-Oct-23 17:27N 22°32' E 113°51'7 8.1
2014-Oct-23 16:33N 22°25' E 113°53'12 9.8
2014-Oct-23 15:19N 22°20' E 114°05'30816.3
2014-Oct-22 20:26N 24°30' E 119°09'40018.1
2014-Oct-21 22:24N 30°16' E 122°55'1416.8
2014-Oct-21 21:33N 30°25' E 122°43'1817.6
2014-Oct-21 20:33N 30°32' E 122°24'1615.5
2014-Oct-21 19:33N 30°36' E 122°06'2 0.2
2014-Oct-21 06:30N 30°36' E 122°04'8 7.2
2014-Oct-21 05:26N 30°34' E 122°12'8 9.3
2014-Oct-21 04:32N 30°33' E 122°22'1010.2
2014-Oct-21 03:33N 30°31' E 122°33'8 7.6
2014-Oct-21 02:33N 30°28' E 122°41'0 0.0
2014-Oct-20 21:07N 30°27' E 122°41'0 0.1
2014-Oct-20 17:19N 30°28' E 122°41'0 0.0
2014-Oct-20 16:31N 30°28' E 122°41'0 0.1
2014-Oct-20 15:31N 30°28' E 122°41'0 0.1
2014-Oct-20 14:29N 30°28' E 122°41'5 5.3
2014-Oct-20 13:33N 30°27' E 122°47'1312.8
2014-Oct-20 12:33N 30°19' E 122°58'1110.7
2014-Oct-20 11:33N 30°08' E 122°59'1312.6
2014-Oct-20 10:33N 29°59' E 122°49'1312.9
2014-Oct-20 09:33N 29°50' E 122°38'1211.5
2014-Oct-20 08:33N 29°45' E 122°27'1110.6
2014-Oct-20 07:33N 29°48' E 122°15'1111.5
2014-Oct-20 06:33N 29°55' E 122°05'2 0.8
2014-Oct-20 04:16N 29°53' E 122°03'0 0.0
2014-Oct-20 02:10N 29°53' E 122°03'0 0.0
2014-Oct-20 01:28N 29°53' E 122°03'0 0.0
2014-Oct-19 20:16N 29°53' E 122°03'0 0.4
2014-Oct-19 19:33N 29°54' E 122°03'7 6.9
2014-Oct-19 18:33N 29°55' E 122°11'1110.7
2014-Oct-19 17:33N 29°46' E 122°18'8 7.9
2014-Oct-19 16:32N 29°43' E 122°27'0 0.1
2014-Oct-19 12:20N 29°44' E 122°27'0 0.0
2014-Oct-19 10:32N 29°44' E 122°27'0 0.0
2014-Oct-19 09:22N 29°44' E 122°27'0 0.1
2014-Oct-19 08:29N 29°44' E 122°27'0 0.1
2014-Oct-19 07:32N 29°44' E 122°27'0 0.1
2014-Oct-19 06:32N 29°44' E 122°27'5 5.3
2014-Oct-19 05:32N 29°43' E 122°33'1212.5
2014-Oct-19 04:33N 29°49' E 122°45'  

Dump ship's entire track history